createdAt,value
2022-11-12T00:02:29.842Z,6.66
2022-11-12T00:07:51.378Z,6.57
2022-11-12T00:13:15.260Z,6.48
2022-11-12T00:18:37.277Z,6.37
2022-11-12T00:23:59.239Z,6.37
2022-11-12T00:29:22.233Z,6.32
2022-11-12T00:34:44.053Z,6.25
2022-11-12T00:40:07.009Z,6.18
2022-11-12T00:45:30.418Z,6.08
2022-11-12T00:50:52.871Z,6.01
2022-11-12T00:56:14.776Z,5.93
2022-11-12T01:01:37.891Z,5.87
2022-11-12T01:06:59.604Z,5.83
2022-11-12T01:12:21.138Z,5.79
2022-11-12T01:17:44.481Z,5.82
2022-11-12T01:23:05.797Z,5.76
2022-11-12T01:28:27.567Z,5.69
2022-11-12T01:33:54.758Z,5.68
2022-11-12T01:39:16.563Z,5.63
2022-11-12T01:44:40.739Z,5.56
2022-11-12T01:50:15.272Z,5.51
2022-11-12T01:55:38.856Z,5.47
2022-11-12T02:01:02.164Z,5.53
2022-11-12T02:06:26.495Z,5.54
2022-11-12T02:11:47.770Z,5.54
2022-11-12T02:17:09.986Z,5.50
2022-11-12T02:22:32.879Z,5.45
2022-11-12T02:27:56.922Z,5.43
2022-11-12T02:33:18.760Z,5.33
2022-11-12T02:38:41.830Z,5.26
2022-11-12T02:44:03.528Z,5.18
2022-11-12T02:49:25.395Z,5.15
2022-11-12T02:54:48.437Z,5.11
2022-11-12T03:00:12.698Z,5.04
2022-11-12T03:05:35.852Z,5.02
2022-11-12T03:10:58.708Z,5.01
2022-11-12T03:16:20.399Z,5.04
2022-11-12T03:21:42.161Z,5.03
2022-11-12T03:27:05.251Z,5.06
2022-11-12T03:32:27.337Z,5.09
2022-11-12T03:37:49.659Z,5.15
2022-11-12T03:43:12.611Z,5.19
2022-11-12T03:48:34.217Z,5.23
2022-11-12T03:53:55.931Z,5.24
2022-11-12T03:59:18.956Z,5.27
2022-11-12T04:04:58.076Z,5.28
2022-11-12T04:10:19.926Z,5.30
2022-11-12T04:15:42.959Z,5.31
2022-11-12T04:21:36.898Z,5.33
2022-11-12T04:26:58.373Z,5.33
2022-11-12T04:32:21.985Z,5.33
2022-11-12T04:37:47.058Z,5.32
2022-11-12T04:43:29.309Z,5.31
2022-11-12T04:48:52.045Z,5.32
2022-11-12T04:54:13.641Z,5.32
2022-11-12T04:59:35.785Z,5.33
2022-11-12T05:04:58.600Z,5.33
2022-11-12T05:10:20.023Z,5.32
2022-11-12T05:15:41.807Z,5.34
2022-11-12T05:21:25.245Z,5.32
2022-11-12T05:26:47.085Z,5.33
2022-11-12T05:32:10.702Z,5.32
2022-11-12T05:37:33.932Z,5.32
2022-11-12T05:42:55.989Z,5.35
2022-11-12T05:48:23.961Z,5.33
2022-11-12T05:53:48.044Z,5.33
2022-11-12T05:59:12.277Z,5.32
2022-11-12T06:04:33.939Z,5.30
2022-11-12T06:09:56.985Z,5.28
2022-11-12T06:15:18.584Z,5.30
2022-11-12T06:20:41.338Z,5.28
2022-11-12T06:26:05.019Z,5.28
2022-11-12T06:31:26.468Z,5.25
2022-11-12T06:36:48.816Z,5.24
2022-11-12T06:42:12.129Z,5.22
2022-11-12T06:47:34.231Z,5.21
2022-11-12T06:53:01.292Z,5.21
2022-11-12T06:58:25.286Z,5.24
2022-11-12T07:03:48.057Z,5.24
2022-11-12T07:09:11.980Z,5.25
2022-11-12T07:14:35.081Z,5.26
2022-11-12T07:20:02.279Z,5.26
2022-11-12T07:25:25.594Z,5.33
2022-11-12T07:30:51.765Z,5.33
2022-11-12T07:36:19.714Z,5.36
2022-11-12T07:41:47.695Z,5.42
2022-11-12T07:47:15.462Z,5.38
2022-11-12T07:52:44.906Z,5.45
2022-11-12T07:58:11.726Z,5.54
2022-11-12T08:03:37.503Z,5.58
2022-11-12T08:09:05.025Z,5.63
2022-11-12T08:14:31.984Z,5.66
2022-11-12T08:19:57.934Z,5.71
2022-11-12T08:25:22.297Z,5.86
2022-11-12T08:30:46.339Z,5.94
2022-11-12T08:36:11.878Z,6.13
2022-11-12T08:41:34.764Z,6.46
2022-11-12T08:46:56.812Z,6.77
2022-11-12T08:52:21.312Z,7.12
2022-11-12T08:57:54.523Z,7.45
2022-11-12T09:03:18.033Z,7.74
2022-11-12T09:08:41.096Z,8.01
2022-11-12T09:14:03.167Z,8.31
2022-11-12T09:19:24.758Z,8.61
2022-11-12T09:24:47.782Z,8.94
2022-11-12T09:30:10.150Z,9.19
2022-11-12T09:35:31.868Z,9.42
2022-11-12T09:41:09.365Z,9.78
2022-11-12T09:46:41.080Z,10.12
2022-11-12T09:52:07.828Z,10.47
2022-11-12T09:57:31.669Z,10.83
2022-11-12T10:03:02.445Z,11.05
2022-11-12T10:08:34.312Z,11.42
2022-11-12T10:14:07.373Z,11.62
2022-11-12T10:19:44.925Z,11.70
2022-11-12T10:25:15.749Z,11.80
2022-11-12T10:30:51.061Z,12.03
2022-11-12T10:36:31.339Z,12.24
2022-11-12T10:42:04.442Z,12.49
2022-11-12T10:47:34.184Z,12.68
2022-11-12T10:52:58.806Z,12.79
2022-11-12T10:58:23.504Z,12.95
2022-11-12T11:03:53.734Z,13.13
2022-11-12T11:09:20.741Z,13.26
2022-11-12T11:14:44.714Z,13.42
2022-11-12T11:20:20.030Z,13.53
2022-11-12T11:25:44.200Z,13.76
2022-11-12T11:31:17.184Z,13.95
2022-11-12T11:36:51.513Z,14.13
2022-11-12T11:42:26.650Z,14.28
2022-11-12T11:48:01.792Z,14.52
2022-11-12T11:53:31.893Z,14.73
2022-11-12T11:59:14.523Z,14.90
2022-11-12T12:04:47.014Z,15.10
2022-11-12T12:10:34.716Z,15.33
2022-11-12T12:16:19.802Z,15.47
2022-11-12T12:21:43.122Z,15.68
2022-11-12T12:27:13.362Z,15.92
2022-11-12T12:32:40.205Z,16.21
2022-11-12T12:38:12.612Z,16.39
2022-11-12T12:43:41.632Z,16.38
2022-11-12T12:49:07.785Z,16.47
2022-11-12T12:54:58.871Z,16.66
2022-11-12T13:00:33.216Z,16.67
2022-11-12T13:06:08.272Z,16.82
2022-11-12T13:12:11.982Z,16.90
2022-11-12T13:17:53.260Z,17.04
2022-11-12T13:24:04.428Z,17.10
2022-11-12T13:29:41.824Z,17.16
2022-11-12T13:35:27.725Z,17.48
2022-11-12T13:40:54.126Z,17.54
2022-11-12T13:46:27.621Z,17.55
2022-11-12T13:51:53.248Z,17.55
2022-11-12T13:57:28.925Z,17.61
2022-11-12T14:02:54.401Z,17.59
2022-11-12T14:08:41.727Z,17.56
2022-11-12T14:14:13.427Z,17.48
2022-11-12T14:20:01.913Z,17.41
2022-11-12T14:25:26.900Z,17.39
2022-11-12T14:30:48.522Z,17.30
2022-11-12T14:36:15.604Z,17.28
2022-11-12T14:41:42.806Z,17.33
2022-11-12T14:47:05.311Z,17.30
2022-11-12T14:52:32.276Z,17.25
2022-11-12T14:57:58.867Z,17.20
2022-11-12T15:03:22.265Z,16.98
2022-11-12T15:08:44.122Z,16.73
2022-11-12T15:14:07.251Z,16.63
2022-11-12T15:19:30.476Z,16.51
2022-11-12T15:24:52.562Z,16.30
2022-11-12T15:30:23.672Z,16.15
2022-11-12T15:35:46.336Z,15.92
2022-11-12T15:41:08.141Z,15.67
2022-11-12T15:46:31.336Z,15.36
2022-11-12T15:51:54.496Z,15.14
2022-11-12T15:57:19.443Z,14.95
2022-11-12T16:02:43.441Z,14.62
2022-11-12T16:08:05.845Z,14.36
2022-11-12T16:13:30.451Z,14.03
2022-11-12T16:18:53.506Z,13.94
2022-11-12T16:24:15.245Z,13.76
2022-11-12T16:29:37.373Z,13.42
2022-11-12T16:35:01.422Z,13.16
2022-11-12T16:40:26.028Z,12.93
2022-11-12T16:45:48.002Z,12.76
2022-11-12T16:51:17.322Z,12.57
2022-11-12T16:56:39.589Z,12.37
2022-11-12T17:02:01.378Z,12.24
2022-11-12T17:07:24.373Z,12.09
2022-11-12T17:12:49.410Z,11.95
2022-11-12T17:18:10.880Z,11.82
2022-11-12T17:23:33.831Z,11.67
2022-11-12T17:29:01.102Z,11.53
2022-11-12T17:34:25.552Z,11.38
2022-11-12T17:39:49.069Z,11.24
2022-11-12T17:45:11.441Z,11.13
2022-11-12T17:50:32.859Z,10.99
2022-11-12T17:55:59.355Z,10.84
2022-11-12T18:01:24.151Z,10.72
2022-11-12T18:06:46.477Z,10.59
2022-11-12T18:12:10.882Z,10.47
2022-11-12T18:17:34.273Z,10.29
2022-11-12T18:22:55.875Z,10.20
2022-11-12T18:28:19.004Z,10.07
2022-11-12T18:33:40.969Z,9.93
2022-11-12T18:39:05.606Z,9.82
2022-11-12T18:44:28.780Z,9.73
2022-11-12T18:49:50.603Z,9.65
2022-11-12T18:55:12.580Z,9.57
2022-11-12T19:00:35.593Z,9.45
2022-11-12T19:05:59.376Z,9.29
2022-11-12T19:11:21.994Z,9.20
2022-11-12T19:16:45.133Z,9.20
2022-11-12T19:22:07.456Z,9.21
2022-11-12T19:27:29.047Z,9.12
2022-11-12T19:32:52.534Z,9.02
2022-11-12T19:38:15.337Z,8.96
2022-11-12T19:43:37.684Z,8.88
2022-11-12T19:49:01.287Z,8.83
2022-11-12T19:54:23.953Z,8.83
2022-11-12T19:59:49.629Z,8.82
2022-11-12T20:05:14.243Z,8.79
2022-11-12T20:10:38.265Z,8.76
2022-11-12T20:16:01.017Z,8.70
2022-11-12T20:21:23.917Z,8.62
2022-11-12T20:26:45.831Z,8.57
2022-11-12T20:32:07.663Z,8.50
2022-11-12T20:37:32.177Z,8.41
2022-11-12T20:42:54.265Z,8.37
2022-11-12T20:48:16.444Z,8.30
2022-11-12T20:53:42.434Z,8.24
2022-11-12T20:59:05.293Z,8.14
2022-11-12T21:04:27.555Z,8.07
2022-11-12T21:09:58.360Z,8.03
2022-11-12T21:15:27.600Z,8.07
2022-11-12T21:20:49.604Z,8.06
2022-11-12T21:26:19.856Z,7.96
2022-11-12T21:31:41.865Z,7.85
2022-11-12T21:37:04.509Z,7.72
2022-11-12T21:42:28.401Z,7.68
2022-11-12T21:47:50.403Z,7.72
2022-11-12T21:53:14.624Z,7.73
2022-11-12T21:58:41.706Z,7.72
2022-11-12T22:04:10.111Z,7.69
2022-11-12T22:09:34.906Z,7.65
2022-11-12T22:14:58.332Z,7.66
2022-11-12T22:20:20.159Z,7.68
2022-11-12T22:25:42.207Z,7.65
2022-11-12T22:31:06.520Z,7.61
2022-11-12T22:36:29.600Z,7.54
2022-11-12T22:41:51.396Z,7.51
2022-11-12T22:47:14.570Z,7.50
2022-11-12T22:52:36.732Z,7.49
2022-11-12T22:58:00.885Z,7.39
2022-11-12T23:03:24.018Z,7.37
2022-11-12T23:08:46.149Z,7.30
2022-11-12T23:14:08.091Z,7.34
2022-11-12T23:19:31.177Z,7.35
2022-11-12T23:24:52.831Z,7.26
2022-11-12T23:30:15.420Z,7.24
2022-11-12T23:35:38.522Z,7.27
2022-11-12T23:41:00.985Z,7.29
2022-11-12T23:46:23.436Z,7.30
2022-11-12T23:51:46.469Z,7.25
2022-11-12T23:57:08.325Z,7.22
